sensor_id;sensor_type;location;lat;lon;timestamp;P1;durP1;ratioP1;P2;durP2;ratioP2
38513;SDS011;24282;48.400;10.808;2023-03-01T00:01:31;17.93;;;13.33;;
38513;SDS011;24282;48.400;10.808;2023-03-01T00:03:58;19.73;;;13.73;;
38513;SDS011;24282;48.400;10.808;2023-03-01T00:06:25;20.50;;;14.13;;
38513;SDS011;24282;48.400;10.808;2023-03-01T00:08:51;19.13;;;13.60;;
38513;SDS011;24282;48.400;10.808;2023-03-01T00:13:44;17.80;;;13.53;;
38513;SDS011;24282;48.400;10.808;2023-03-01T00:16:12;19.30;;;13.73;;
38513;SDS011;24282;48.400;10.808;2023-03-01T00:18:43;18.73;;;13.68;;
38513;SDS011;24282;48.400;10.808;2023-03-01T00:21:09;19.37;;;13.73;;
38513;SDS011;24282;48.400;10.808;2023-03-01T00:23:35;21.17;;;14.80;;
38513;SDS011;24282;48.400;10.808;2023-03-01T00:26:05;16.53;;;12.23;;
38513;SDS011;24282;48.400;10.808;2023-03-01T00:28:32;20.27;;;14.13;;
38513;SDS011;24282;48.400;10.808;2023-03-01T00:31:31;18.67;;;14.10;;
38513;SDS011;24282;48.400;10.808;2023-03-01T00:33:55;20.38;;;13.48;;
38513;SDS011;24282;48.400;10.808;2023-03-01T00:36:23;20.17;;;13.37;;
38513;SDS011;24282;48.400;10.808;2023-03-01T00:38:50;18.57;;;13.90;;
38513;SDS011;24282;48.400;10.808;2023-03-01T00:41:16;20.00;;;13.83;;
38513;SDS011;24282;48.400;10.808;2023-03-01T00:43:43;18.97;;;14.47;;
38513;SDS011;24282;48.400;10.808;2023-03-01T00:46:11;20.63;;;14.43;;
38513;SDS011;24282;48.400;10.808;2023-03-01T00:48:38;21.67;;;15.10;;
38513;SDS011;24282;48.400;10.808;2023-03-01T00:51:05;21.70;;;13.63;;
38513;SDS011;24282;48.400;10.808;2023-03-01T00:53:31;19.77;;;14.47;;
38513;SDS011;24282;48.400;10.808;2023-03-01T00:55:57;21.07;;;14.60;;
38513;SDS011;24282;48.400;10.808;2023-03-01T00:58:23;21.40;;;14.57;;
38513;SDS011;24282;48.400;10.808;2023-03-01T01:00:49;21.40;;;13.83;;
38513;SDS011;24282;48.400;10.808;2023-03-01T01:03:15;20.40;;;14.40;;
38513;SDS011;24282;48.400;10.808;2023-03-01T01:05:41;18.50;;;14.47;;
38513;SDS011;24282;48.400;10.808;2023-03-01T01:08:07;22.10;;;14.00;;
38513;SDS011;24282;48.400;10.808;2023-03-01T01:10:35;21.37;;;13.50;;
38513;SDS011;24282;48.400;10.808;2023-03-01T01:13:01;20.13;;;14.37;;
38513;SDS011;24282;48.400;10.808;2023-03-01T01:15:27;20.23;;;14.73;;
38513;SDS011;24282;48.400;10.808;2023-03-01T01:17:53;22.33;;;14.60;;
38513;SDS011;24282;48.400;10.808;2023-03-01T01:20:20;21.63;;;15.63;;
38513;SDS011;24282;48.400;10.808;2023-03-01T01:22:46;19.80;;;13.63;;
38513;SDS011;24282;48.400;10.808;2023-03-01T01:25:12;20.47;;;13.97;;
38513;SDS011;24282;48.400;10.808;2023-03-01T01:27:37;22.73;;;15.00;;
38513;SDS011;24282;48.400;10.808;2023-03-01T01:30:03;21.60;;;15.47;;
38513;SDS011;24282;48.400;10.808;2023-03-01T01:32:30;20.47;;;14.90;;
38513;SDS011;24282;48.400;10.808;2023-03-01T01:34:55;23.87;;;15.40;;
38513;SDS011;24282;48.400;10.808;2023-03-01T01:37:21;20.87;;;14.80;;
38513;SDS011;24282;48.400;10.808;2023-03-01T01:39:47;20.07;;;14.53;;
38513;SDS011;24282;48.400;10.808;2023-03-01T01:42:16;19.53;;;14.53;;
38513;SDS011;24282;48.400;10.808;2023-03-01T01:44:44;20.27;;;15.13;;
38513;SDS011;24282;48.400;10.808;2023-03-01T01:47:16;21.43;;;14.63;;
38513;SDS011;24282;48.400;10.808;2023-03-01T01:49:49;20.70;;;14.83;;
38513;SDS011;24282;48.400;10.808;2023-03-01T01:52:20;21.50;;;14.88;;
38513;SDS011;24282;48.400;10.808;2023-03-01T01:57:41;22.50;;;15.83;;
38513;SDS011;24282;48.400;10.808;2023-03-01T02:00:12;24.37;;;15.70;;
38513;SDS011;24282;48.400;10.808;2023-03-01T02:02:42;21.37;;;15.33;;
38513;SDS011;24282;48.400;10.808;2023-03-01T02:07:42;20.17;;;14.80;;
38513;SDS011;24282;48.400;10.808;2023-03-01T02:10:09;26.43;;;16.97;;
38513;SDS011;24282;48.400;10.808;2023-03-01T02:12:35;20.23;;;15.43;;
38513;SDS011;24282;48.400;10.808;2023-03-01T02:15:02;19.87;;;14.53;;
38513;SDS011;24282;48.400;10.808;2023-03-01T02:17:29;20.57;;;14.93;;
38513;SDS011;24282;48.400;10.808;2023-03-01T02:22:39;21.27;;;15.10;;
38513;SDS011;24282;48.400;10.808;2023-03-01T02:30:38;22.83;;;15.73;;
38513;SDS011;24282;48.400;10.808;2023-03-01T02:33:25;21.23;;;15.53;;
38513;SDS011;24282;48.400;10.808;2023-03-01T02:35:53;20.63;;;15.60;;
38513;SDS011;24282;48.400;10.808;2023-03-01T02:38:20;22.80;;;15.27;;
38513;SDS011;24282;48.400;10.808;2023-03-01T02:40:47;20.37;;;14.67;;
38513;SDS011;24282;48.400;10.808;2023-03-01T02:43:15;19.60;;;14.90;;
38513;SDS011;24282;48.400;10.808;2023-03-01T02:45:47;21.83;;;15.47;;
38513;SDS011;24282;48.400;10.808;2023-03-01T02:48:15;21.60;;;14.88;;
38513;SDS011;24282;48.400;10.808;2023-03-01T02:53:33;21.47;;;15.37;;
38513;SDS011;24282;48.400;10.808;2023-03-01T02:56:03;20.80;;;15.10;;
38513;SDS011;24282;48.400;10.808;2023-03-01T02:58:29;22.07;;;16.13;;
38513;SDS011;24282;48.400;10.808;2023-03-01T03:00:55;21.07;;;15.50;;
38513;SDS011;24282;48.400;10.808;2023-03-01T03:03:22;22.97;;;16.03;;
38513;SDS011;24282;48.400;10.808;2023-03-01T03:05:47;24.63;;;16.17;;
38513;SDS011;24282;48.400;10.808;2023-03-01T03:08:13;22.77;;;15.50;;
38513;SDS011;24282;48.400;10.808;2023-03-01T03:10:41;23.13;;;16.57;;
38513;SDS011;24282;48.400;10.808;2023-03-01T03:13:12;21.50;;;14.80;;
38513;SDS011;24282;48.400;10.808;2023-03-01T03:15:39;24.03;;;16.07;;
38513;SDS011;24282;48.400;10.808;2023-03-01T03:18:08;21.97;;;16.37;;
38513;SDS011;24282;48.400;10.808;2023-03-01T03:20:36;23.10;;;16.10;;
38513;SDS011;24282;48.400;10.808;2023-03-01T03:23:02;24.47;;;16.77;;
38513;SDS011;24282;48.400;10.808;2023-03-01T03:25:29;20.20;;;15.37;;
38513;SDS011;24282;48.400;10.808;2023-03-01T03:27:55;21.77;;;15.20;;
38513;SDS011;24282;48.400;10.808;2023-03-01T03:30:27;22.23;;;15.93;;
38513;SDS011;24282;48.400;10.808;2023-03-01T03:32:54;19.93;;;15.20;;
38513;SDS011;24282;48.400;10.808;2023-03-01T03:35:31;23.40;;;15.37;;
38513;SDS011;24282;48.400;10.808;2023-03-01T03:38:04;21.17;;;15.10;;
38513;SDS011;24282;48.400;10.808;2023-03-01T03:40:38;22.53;;;14.10;;
38513;SDS011;24282;48.400;10.808;2023-03-01T03:43:12;20.73;;;14.00;;
38513;SDS011;24282;48.400;10.808;2023-03-01T03:45:39;22.13;;;15.30;;
38513;SDS011;24282;48.400;10.808;2023-03-01T03:48:06;20.03;;;15.03;;
38513;SDS011;24282;48.400;10.808;2023-03-01T03:50:34;21.93;;;16.40;;
38513;SDS011;24282;48.400;10.808;2023-03-01T03:53:00;22.63;;;16.07;;
38513;SDS011;24282;48.400;10.808;2023-03-01T03:55:28;22.47;;;14.90;;
38513;SDS011;24282;48.400;10.808;2023-03-01T03:57:56;21.13;;;14.73;;
38513;SDS011;24282;48.400;10.808;2023-03-01T04:00:27;18.87;;;13.47;;
38513;SDS011;24282;48.400;10.808;2023-03-01T04:02:53;22.77;;;14.37;;
38513;SDS011;24282;48.400;10.808;2023-03-01T04:05:21;22.93;;;14.17;;
38513;SDS011;24282;48.400;10.808;2023-03-01T04:07:47;19.37;;;14.20;;
38513;SDS011;24282;48.400;10.808;2023-03-01T04:10:14;21.70;;;15.87;;
38513;SDS011;24282;48.400;10.808;2023-03-01T04:12:42;24.33;;;16.63;;
38513;SDS011;24282;48.400;10.808;2023-03-01T04:15:08;19.60;;;14.50;;
38513;SDS011;24282;48.400;10.808;2023-03-01T04:17:39;20.63;;;15.07;;
38513;SDS011;24282;48.400;10.808;2023-03-01T04:20:07;23.40;;;15.30;;
38513;SDS011;24282;48.400;10.808;2023-03-01T04:22:34;19.73;;;14.67;;
38513;SDS011;24282;48.400;10.808;2023-03-01T04:25:00;19.80;;;14.53;;
38513;SDS011;24282;48.400;10.808;2023-03-01T04:27:34;21.47;;;15.37;;
38513;SDS011;24282;48.400;10.808;2023-03-01T04:30:00;19.87;;;13.77;;
38513;SDS011;24282;48.400;10.808;2023-03-01T04:32:27;20.43;;;14.60;;
38513;SDS011;24282;48.400;10.808;2023-03-01T04:34:53;23.27;;;14.13;;
38513;SDS011;24282;48.400;10.808;2023-03-01T04:37:19;23.23;;;15.10;;
38513;SDS011;24282;48.400;10.808;2023-03-01T04:39:44;22.20;;;15.80;;
38513;SDS011;24282;48.400;10.808;2023-03-01T04:42:19;23.40;;;16.17;;
38513;SDS011;24282;48.400;10.808;2023-03-01T04:44:45;23.07;;;15.63;;
38513;SDS011;24282;48.400;10.808;2023-03-01T04:47:11;22.53;;;15.10;;
38513;SDS011;24282;48.400;10.808;2023-03-01T04:49:37;20.97;;;14.73;;
38513;SDS011;24282;48.400;10.808;2023-03-01T04:52:03;19.90;;;14.53;;
38513;SDS011;24282;48.400;10.808;2023-03-01T04:54:30;23.47;;;16.37;;
38513;SDS011;24282;48.400;10.808;2023-03-01T04:56:57;22.57;;;15.70;;
38513;SDS011;24282;48.400;10.808;2023-03-01T04:59:23;21.63;;;15.00;;
38513;SDS011;24282;48.400;10.808;2023-03-01T05:01:50;20.77;;;15.90;;
38513;SDS011;24282;48.400;10.808;2023-03-01T05:04:16;21.80;;;15.60;;
38513;SDS011;24282;48.400;10.808;2023-03-01T05:06:42;24.40;;;16.30;;
38513;SDS011;24282;48.400;10.808;2023-03-01T05:09:08;21.93;;;15.70;;
38513;SDS011;24282;48.400;10.808;2023-03-01T05:11:34;23.73;;;15.80;;
38513;SDS011;24282;48.400;10.808;2023-03-01T05:14:04;23.67;;;15.70;;
38513;SDS011;24282;48.400;10.808;2023-03-01T05:16:31;26.00;;;16.93;;
38513;SDS011;24282;48.400;10.808;2023-03-01T05:18:58;22.27;;;16.23;;
38513;SDS011;24282;48.400;10.808;2023-03-01T05:21:24;21.40;;;16.00;;
38513;SDS011;24282;48.400;10.808;2023-03-01T05:23:50;22.83;;;16.23;;
38513;SDS011;24282;48.400;10.808;2023-03-01T05:26:16;20.87;;;15.40;;
38513;SDS011;24282;48.400;10.808;2023-03-01T05:28:44;24.27;;;17.20;;
38513;SDS011;24282;48.400;10.808;2023-03-01T05:31:10;25.83;;;17.97;;
38513;SDS011;24282;48.400;10.808;2023-03-01T05:33:36;24.60;;;14.93;;
38513;SDS011;24282;48.400;10.808;2023-03-01T05:36:03;24.47;;;16.87;;
38513;SDS011;24282;48.400;10.808;2023-03-01T05:38:29;26.27;;;16.27;;
38513;SDS011;24282;48.400;10.808;2023-03-01T05:40:55;22.20;;;16.03;;
38513;SDS011;24282;48.400;10.808;2023-03-01T05:43:20;24.03;;;17.03;;
38513;SDS011;24282;48.400;10.808;2023-03-01T05:45:46;24.90;;;15.90;;
38513;SDS011;24282;48.400;10.808;2023-03-01T05:48:12;23.87;;;17.40;;
38513;SDS011;24282;48.400;10.808;2023-03-01T05:50:40;21.13;;;15.73;;
38513;SDS011;24282;48.400;10.808;2023-03-01T05:53:13;21.70;;;15.30;;
38513;SDS011;24282;48.400;10.808;2023-03-01T05:55:46;22.90;;;16.27;;
38513;SDS011;24282;48.400;10.808;2023-03-01T05:58:16;21.90;;;15.93;;
38513;SDS011;24282;48.400;10.808;2023-03-01T06:00:43;20.80;;;14.83;;
38513;SDS011;24282;48.400;10.808;2023-03-01T06:03:11;21.73;;;14.97;;
38513;SDS011;24282;48.400;10.808;2023-03-01T06:05:39;24.80;;;15.50;;
38513;SDS011;24282;48.400;10.808;2023-03-01T06:08:05;22.07;;;14.93;;
38513;SDS011;24282;48.400;10.808;2023-03-01T06:10:31;22.77;;;15.33;;
38513;SDS011;24282;48.400;10.808;2023-03-01T06:12:57;20.93;;;14.73;;
38513;SDS011;24282;48.400;10.808;2023-03-01T06:15:23;23.90;;;16.47;;
38513;SDS011;24282;48.400;10.808;2023-03-01T06:17:49;27.37;;;17.07;;
38513;SDS011;24282;48.400;10.808;2023-03-01T06:20:17;24.07;;;15.63;;
38513;SDS011;24282;48.400;10.808;2023-03-01T06:22:45;24.17;;;15.53;;
38513;SDS011;24282;48.400;10.808;2023-03-01T06:25:12;22.53;;;15.73;;
38513;SDS011;24282;48.400;10.808;2023-03-01T06:27:39;23.30;;;15.23;;
38513;SDS011;24282;48.400;10.808;2023-03-01T06:30:05;25.17;;;16.87;;
38513;SDS011;24282;48.400;10.808;2023-03-01T06:32:33;22.63;;;16.53;;
38513;SDS011;24282;48.400;10.808;2023-03-01T06:34:58;25.77;;;16.33;;
38513;SDS011;24282;48.400;10.808;2023-03-01T06:37:25;26.80;;;17.13;;
38513;SDS011;24282;48.400;10.808;2023-03-01T06:39:51;25.43;;;17.43;;
38513;SDS011;24282;48.400;10.808;2023-03-01T06:42:16;23.20;;;16.17;;
38513;SDS011;24282;48.400;10.808;2023-03-01T06:44:43;25.37;;;16.90;;
38513;SDS011;24282;48.400;10.808;2023-03-01T06:47:09;24.40;;;16.67;;
38513;SDS011;24282;48.400;10.808;2023-03-01T06:49:35;26.77;;;17.07;;
38513;SDS011;24282;48.400;10.808;2023-03-01T06:52:00;23.97;;;16.87;;
38513;SDS011;24282;48.400;10.808;2023-03-01T06:54:26;24.67;;;17.10;;
38513;SDS011;24282;48.400;10.808;2023-03-01T06:56:52;27.87;;;18.13;;
38513;SDS011;24282;48.400;10.808;2023-03-01T06:59:17;25.63;;;16.83;;
38513;SDS011;24282;48.400;10.808;2023-03-01T07:01:44;25.70;;;17.73;;
38513;SDS011;24282;48.400;10.808;2023-03-01T07:04:10;25.47;;;16.87;;
38513;SDS011;24282;48.400;10.808;2023-03-01T07:06:36;26.73;;;17.17;;
38513;SDS011;24282;48.400;10.808;2023-03-01T07:09:02;24.67;;;17.37;;
38513;SDS011;24282;48.400;10.808;2023-03-01T07:11:28;28.47;;;17.03;;
38513;SDS011;24282;48.400;10.808;2023-03-01T07:13:53;26.27;;;18.53;;
38513;SDS011;24282;48.400;10.808;2023-03-01T07:16:20;24.37;;;16.30;;
38513;SDS011;24282;48.400;10.808;2023-03-01T07:18:46;29.47;;;18.97;;
38513;SDS011;24282;48.400;10.808;2023-03-01T07:21:12;28.10;;;18.33;;
38513;SDS011;24282;48.400;10.808;2023-03-01T07:23:39;25.40;;;17.57;;
38513;SDS011;24282;48.400;10.808;2023-03-01T07:26:05;25.43;;;17.43;;
38513;SDS011;24282;48.400;10.808;2023-03-01T07:28:31;27.40;;;17.97;;
38513;SDS011;24282;48.400;10.808;2023-03-01T07:31:01;26.23;;;16.93;;
38513;SDS011;24282;48.400;10.808;2023-03-01T07:33:27;26.27;;;17.97;;
38513;SDS011;24282;48.400;10.808;2023-03-01T07:35:57;25.07;;;16.13;;
38513;SDS011;24282;48.400;10.808;2023-03-01T07:38:24;27.47;;;17.37;;
38513;SDS011;24282;48.400;10.808;2023-03-01T07:40:51;25.27;;;17.47;;
38513;SDS011;24282;48.400;10.808;2023-03-01T07:43:17;26.33;;;17.70;;
38513;SDS011;24282;48.400;10.808;2023-03-01T07:45:43;25.43;;;17.03;;
38513;SDS011;24282;48.400;10.808;2023-03-01T07:48:09;23.47;;;16.07;;
38513;SDS011;24282;48.400;10.808;2023-03-01T07:50:34;22.83;;;16.23;;
38513;SDS011;24282;48.400;10.808;2023-03-01T07:53:00;27.57;;;17.53;;
38513;SDS011;24282;48.400;10.808;2023-03-01T07:55:26;22.90;;;15.70;;
38513;SDS011;24282;48.400;10.808;2023-03-01T07:57:52;24.73;;;16.43;;
38513;SDS011;24282;48.400;10.808;2023-03-01T08:00:17;23.70;;;16.67;;
38513;SDS011;24282;48.400;10.808;2023-03-01T08:02:43;25.17;;;17.97;;
38513;SDS011;24282;48.400;10.808;2023-03-01T08:05:10;25.37;;;17.80;;
38513;SDS011;24282;48.400;10.808;2023-03-01T08:07:36;24.57;;;17.40;;
38513;SDS011;24282;48.400;10.808;2023-03-01T08:10:02;27.30;;;17.83;;
38513;SDS011;24282;48.400;10.808;2023-03-01T08:12:28;24.17;;;16.57;;
38513;SDS011;24282;48.400;10.808;2023-03-01T08:14:54;23.77;;;17.33;;
38513;SDS011;24282;48.400;10.808;2023-03-01T08:17:20;23.53;;;17.17;;
38513;SDS011;24282;48.400;10.808;2023-03-01T08:19:46;26.23;;;17.40;;
38513;SDS011;24282;48.400;10.808;2023-03-01T08:22:11;24.53;;;16.93;;
38513;SDS011;24282;48.400;10.808;2023-03-01T08:24:37;27.80;;;17.37;;
38513;SDS011;24282;48.400;10.808;2023-03-01T08:27:03;23.57;;;16.53;;
38513;SDS011;24282;48.400;10.808;2023-03-01T08:29:32;24.80;;;17.57;;
38513;SDS011;24282;48.400;10.808;2023-03-01T08:31:58;24.63;;;16.67;;
38513;SDS011;24282;48.400;10.808;2023-03-01T08:34:24;24.53;;;17.13;;
38513;SDS011;24282;48.400;10.808;2023-03-01T08:36:50;25.27;;;17.70;;
38513;SDS011;24282;48.400;10.808;2023-03-01T08:39:18;23.20;;;16.40;;
38513;SDS011;24282;48.400;10.808;2023-03-01T08:41:45;26.10;;;17.07;;
38513;SDS011;24282;48.400;10.808;2023-03-01T08:44:12;25.00;;;17.50;;
38513;SDS011;24282;48.400;10.808;2023-03-01T08:46:40;24.60;;;16.53;;
38513;SDS011;24282;48.400;10.808;2023-03-01T08:49:15;25.63;;;16.77;;
38513;SDS011;24282;48.400;10.808;2023-03-01T08:51:43;25.03;;;16.67;;
38513;SDS011;24282;48.400;10.808;2023-03-01T08:54:10;19.83;;;14.77;;
38513;SDS011;24282;48.400;10.808;2023-03-01T08:56:40;23.90;;;16.00;;
38513;SDS011;24282;48.400;10.808;2023-03-01T08:59:07;23.27;;;15.70;;
38513;SDS011;24282;48.400;10.808;2023-03-01T09:01:32;23.60;;;16.73;;
38513;SDS011;24282;48.400;10.808;2023-03-01T09:03:58;24.33;;;15.80;;
38513;SDS011;24282;48.400;10.808;2023-03-01T09:06:24;21.57;;;15.47;;
38513;SDS011;24282;48.400;10.808;2023-03-01T09:08:50;23.90;;;16.50;;
38513;SDS011;24282;48.400;10.808;2023-03-01T09:11:19;24.17;;;16.77;;
38513;SDS011;24282;48.400;10.808;2023-03-01T09:13:46;24.43;;;17.63;;
38513;SDS011;24282;48.400;10.808;2023-03-01T09:16:13;22.33;;;16.50;;
38513;SDS011;24282;48.400;10.808;2023-03-01T09:18:42;21.10;;;16.40;;
38513;SDS011;24282;48.400;10.808;2023-03-01T09:21:09;23.27;;;16.80;;
38513;SDS011;24282;48.400;10.808;2023-03-01T09:23:38;24.17;;;16.70;;
38513;SDS011;24282;48.400;10.808;2023-03-01T09:26:07;20.57;;;15.63;;
38513;SDS011;24282;48.400;10.808;2023-03-01T09:28:34;22.93;;;17.03;;
38513;SDS011;24282;48.400;10.808;2023-03-01T09:31:01;25.67;;;17.70;;
38513;SDS011;24282;48.400;10.808;2023-03-01T09:33:27;26.43;;;17.43;;
38513;SDS011;24282;48.400;10.808;2023-03-01T09:35:58;23.87;;;16.77;;
38513;SDS011;24282;48.400;10.808;2023-03-01T09:38:29;21.13;;;15.23;;
38513;SDS011;24282;48.400;10.808;2023-03-01T09:40:55;23.60;;;17.03;;
38513;SDS011;24282;48.400;10.808;2023-03-01T09:45:58;26.70;;;16.63;;
38513;SDS011;24282;48.400;10.808;2023-03-01T09:48:28;26.13;;;17.43;;
38513;SDS011;24282;48.400;10.808;2023-03-01T09:51:02;23.60;;;16.67;;
38513;SDS011;24282;48.400;10.808;2023-03-01T09:53:34;19.33;;;15.30;;
38513;SDS011;24282;48.400;10.808;2023-03-01T09:56:10;23.37;;;16.63;;
38513;SDS011;24282;48.400;10.808;2023-03-01T10:04:55;21.60;;;16.30;;
38513;SDS011;24282;48.400;10.808;2023-03-01T10:07:39;23.07;;;16.50;;
38513;SDS011;24282;48.400;10.808;2023-03-01T10:10:38;23.70;;;17.20;;
38513;SDS011;24282;48.400;10.808;2023-03-01T10:15:54;19.47;;;14.93;;
38513;SDS011;24282;48.400;10.808;2023-03-01T10:18:25;22.53;;;16.70;;
38513;SDS011;24282;48.400;10.808;2023-03-01T10:23:40;23.00;;;16.20;;
38513;SDS011;24282;48.400;10.808;2023-03-01T10:26:16;21.33;;;16.10;;
38513;SDS011;24282;48.400;10.808;2023-03-01T10:29:09;24.93;;;17.60;;
38513;SDS011;24282;48.400;10.808;2023-03-01T10:31:49;24.20;;;17.93;;
38513;SDS011;24282;48.400;10.808;2023-03-01T10:34:20;20.60;;;16.73;;
38513;SDS011;24282;48.400;10.808;2023-03-01T10:36:52;23.20;;;16.93;;
38513;SDS011;24282;48.400;10.808;2023-03-01T10:39:57;19.67;;;14.53;;
38513;SDS011;24282;48.400;10.808;2023-03-01T10:42:32;30.67;;;17.13;;
38513;SDS011;24282;48.400;10.808;2023-03-01T10:45:46;20.77;;;15.97;;
38513;SDS011;24282;48.400;10.808;2023-03-01T10:50:38;22.13;;;16.63;;
38513;SDS011;24282;48.400;10.808;2023-03-01T10:58:26;23.37;;;16.53;;
38513;SDS011;24282;48.400;10.808;2023-03-01T11:01:00;21.13;;;16.50;;
38513;SDS011;24282;48.400;10.808;2023-03-01T11:08:33;22.97;;;16.50;;
38513;SDS011;24282;48.400;10.808;2023-03-01T11:13:31;19.87;;;15.40;;
38513;SDS011;24282;48.400;10.808;2023-03-01T11:16:00;22.03;;;16.13;;
38513;SDS011;24282;48.400;10.808;2023-03-01T11:18:29;23.90;;;15.37;;
38513;SDS011;24282;48.400;10.808;2023-03-01T11:20:55;19.83;;;15.50;;
38513;SDS011;24282;48.400;10.808;2023-03-01T11:23:24;23.37;;;16.50;;
38513;SDS011;24282;48.400;10.808;2023-03-01T11:25:56;19.00;;;14.60;;
38513;SDS011;24282;48.400;10.808;2023-03-01T11:28:25;21.07;;;16.07;;
38513;SDS011;24282;48.400;10.808;2023-03-01T11:39:05;21.13;;;16.70;;
38513;SDS011;24282;48.400;10.808;2023-03-01T11:41:58;23.10;;;16.67;;
38513;SDS011;24282;48.400;10.808;2023-03-01T11:44:34;19.97;;;16.30;;
38513;SDS011;24282;48.400;10.808;2023-03-01T11:52:52;21.43;;;16.97;;
38513;SDS011;24282;48.400;10.808;2023-03-01T11:55:46;21.53;;;16.53;;
38513;SDS011;24282;48.400;10.808;2023-03-01T12:01:56;22.90;;;15.80;;
38513;SDS011;24282;48.400;10.808;2023-03-01T12:06:57;23.13;;;16.80;;
38513;SDS011;24282;48.400;10.808;2023-03-01T12:15:06;18.23;;;14.73;;
38513;SDS011;24282;48.400;10.808;2023-03-01T12:26:35;17.10;;;13.87;;
38513;SDS011;24282;48.400;10.808;2023-03-01T12:37:19;20.60;;;15.83;;
38513;SDS011;24282;48.400;10.808;2023-03-01T12:51:26;19.80;;;15.02;;
38513;SDS011;24282;48.400;10.808;2023-03-01T12:53:56;18.37;;;14.80;;
38513;SDS011;24282;48.400;10.808;2023-03-01T12:56:28;17.83;;;14.33;;
38513;SDS011;24282;48.400;10.808;2023-03-01T13:04:30;14.02;;;10.55;;
38513;SDS011;24282;48.400;10.808;2023-03-01T13:10:20;16.63;;;13.47;;
38513;SDS011;24282;48.400;10.808;2023-03-01T13:20:19;20.53;;;14.40;;
38513;SDS011;24282;48.400;10.808;2023-03-01T13:22:48;17.43;;;13.37;;
38513;SDS011;24282;48.400;10.808;2023-03-01T13:25:29;16.70;;;13.50;;
38513;SDS011;24282;48.400;10.808;2023-03-01T13:28:35;15.90;;;12.10;;
38513;SDS011;24282;48.400;10.808;2023-03-01T13:30:58;17.23;;;12.73;;
38513;SDS011;24282;48.400;10.808;2023-03-01T13:35:54;17.77;;;13.47;;
38513;SDS011;24282;48.400;10.808;2023-03-01T13:41:14;17.70;;;14.40;;
38513;SDS011;24282;48.400;10.808;2023-03-01T13:43:43;18.10;;;14.33;;
38513;SDS011;24282;48.400;10.808;2023-03-01T13:46:21;17.77;;;13.67;;
38513;SDS011;24282;48.400;10.808;2023-03-01T13:48:53;18.20;;;12.83;;
38513;SDS011;24282;48.400;10.808;2023-03-01T13:51:23;17.20;;;13.05;;
38513;SDS011;24282;48.400;10.808;2023-03-01T13:53:52;17.63;;;12.37;;
38513;SDS011;24282;48.400;10.808;2023-03-01T13:56:24;16.57;;;12.43;;
38513;SDS011;24282;48.400;10.808;2023-03-01T13:58:54;17.40;;;12.73;;
38513;SDS011;24282;48.400;10.808;2023-03-01T14:03:57;16.42;;;13.30;;
38513;SDS011;24282;48.400;10.808;2023-03-01T14:06:31;17.03;;;13.30;;
38513;SDS011;24282;48.400;10.808;2023-03-01T14:09:17;17.90;;;13.30;;
38513;SDS011;24282;48.400;10.808;2023-03-01T14:20:11;15.07;;;11.83;;
38513;SDS011;24282;48.400;10.808;2023-03-01T14:22:45;16.53;;;13.10;;
38513;SDS011;24282;48.400;10.808;2023-03-01T14:27:58;17.67;;;13.87;;
38513;SDS011;24282;48.400;10.808;2023-03-01T14:30:49;19.20;;;14.00;;
38513;SDS011;24282;48.400;10.808;2023-03-01T14:36:25;16.53;;;13.03;;
38513;SDS011;24282;48.400;10.808;2023-03-01T14:38:50;16.67;;;13.97;;
38513;SDS011;24282;48.400;10.808;2023-03-01T14:41:17;16.40;;;12.83;;
38513;SDS011;24282;48.400;10.808;2023-03-01T14:44:07;17.10;;;13.93;;
38513;SDS011;24282;48.400;10.808;2023-03-01T14:46:37;17.73;;;13.50;;
38513;SDS011;24282;48.400;10.808;2023-03-01T14:49:14;20.10;;;14.30;;
38513;SDS011;24282;48.400;10.808;2023-03-01T14:54:40;17.13;;;12.80;;
38513;SDS011;24282;48.400;10.808;2023-03-01T14:57:12;16.60;;;12.90;;
38513;SDS011;24282;48.400;10.808;2023-03-01T14:59:46;15.73;;;12.90;;
38513;SDS011;24282;48.400;10.808;2023-03-01T15:02:23;19.30;;;13.93;;
38513;SDS011;24282;48.400;10.808;2023-03-01T15:04:52;17.53;;;13.90;;
38513;SDS011;24282;48.400;10.808;2023-03-01T15:07:26;19.13;;;13.57;;
38513;SDS011;24282;48.400;10.808;2023-03-01T15:09:56;15.73;;;12.47;;
38513;SDS011;24282;48.400;10.808;2023-03-01T15:12:39;18.67;;;13.40;;
38513;SDS011;24282;48.400;10.808;2023-03-01T15:15:51;18.63;;;14.30;;
38513;SDS011;24282;48.400;10.808;2023-03-01T15:17:59;19.93;;;13.23;;
38513;SDS011;24282;48.400;10.808;2023-03-01T15:20:27;18.77;;;13.97;;
38513;SDS011;24282;48.400;10.808;2023-03-01T15:22:56;18.87;;;13.23;;
38513;SDS011;24282;48.400;10.808;2023-03-01T15:25:26;17.50;;;12.63;;
38513;SDS011;24282;48.400;10.808;2023-03-01T15:27:54;14.40;;;11.63;;
38513;SDS011;24282;48.400;10.808;2023-03-01T15:30:23;18.83;;;13.20;;
38513;SDS011;24282;48.400;10.808;2023-03-01T15:35:46;15.90;;;12.90;;
38513;SDS011;24282;48.400;10.808;2023-03-01T15:41:22;13.70;;;11.23;;
38513;SDS011;24282;48.400;10.808;2023-03-01T15:44:25;18.57;;;12.90;;
38513;SDS011;24282;48.400;10.808;2023-03-01T15:46:52;17.57;;;12.03;;
38513;SDS011;24282;48.400;10.808;2023-03-01T15:49:25;18.53;;;12.33;;
38513;SDS011;24282;48.400;10.808;2023-03-01T15:52:00;15.27;;;11.73;;
38513;SDS011;24282;48.400;10.808;2023-03-01T15:54:27;16.87;;;11.50;;
38513;SDS011;24282;48.400;10.808;2023-03-01T15:56:54;15.93;;;11.53;;
38513;SDS011;24282;48.400;10.808;2023-03-01T15:59:20;16.27;;;11.70;;
38513;SDS011;24282;48.400;10.808;2023-03-01T16:01:47;16.00;;;12.03;;
38513;SDS011;24282;48.400;10.808;2023-03-01T16:04:14;15.83;;;11.53;;
38513;SDS011;24282;48.400;10.808;2023-03-01T16:06:49;18.03;;;12.27;;
38513;SDS011;24282;48.400;10.808;2023-03-01T16:09:23;16.03;;;12.07;;
38513;SDS011;24282;48.400;10.808;2023-03-01T16:11:51;15.57;;;11.30;;
38513;SDS011;24282;48.400;10.808;2023-03-01T16:14:18;19.30;;;13.87;;
38513;SDS011;24282;48.400;10.808;2023-03-01T16:16:44;17.53;;;12.70;;
38513;SDS011;24282;48.400;10.808;2023-03-01T16:19:11;18.23;;;13.30;;
38513;SDS011;24282;48.400;10.808;2023-03-01T16:21:37;16.80;;;12.87;;
38513;SDS011;24282;48.400;10.808;2023-03-01T16:24:03;16.10;;;11.50;;
38513;SDS011;24282;48.400;10.808;2023-03-01T16:26:29;15.50;;;12.07;;
38513;SDS011;24282;48.400;10.808;2023-03-01T16:28:55;15.10;;;11.30;;
38513;SDS011;24282;48.400;10.808;2023-03-01T16:31:22;17.97;;;12.57;;
38513;SDS011;24282;48.400;10.808;2023-03-01T16:33:53;15.57;;;12.10;;
38513;SDS011;24282;48.400;10.808;2023-03-01T16:36:20;16.27;;;12.30;;
38513;SDS011;24282;48.400;10.808;2023-03-01T16:38:49;18.03;;;12.00;;
38513;SDS011;24282;48.400;10.808;2023-03-01T16:41:17;17.13;;;12.73;;
38513;SDS011;24282;48.400;10.808;2023-03-01T16:43:44;15.43;;;11.50;;
38513;SDS011;24282;48.400;10.808;2023-03-01T16:48:38;16.93;;;11.93;;
38513;SDS011;24282;48.400;10.808;2023-03-01T16:51:04;17.23;;;12.60;;
38513;SDS011;24282;48.400;10.808;2023-03-01T16:53:32;16.47;;;12.47;;